Time;durP1;ratioP1;P1;durP2;ratioP2;P2;SDS_P1;SDS_P2;PMS_P1;PMS_P2;Temp;Humidity;BMP_temperature;BMP_pressure;BME280_temperature;BME280_humidity;BME280_pressure;Samples;Min_cycle;Max_cycle;Signal;HPM_P1;HPM_P2
2023/08/11 00:00:24;;;;;;;;;;;19.20;63.10;;;;;;4952956;28;83478;-40
2023/08/11 00:02:50;;;;;;;;;;;19.20;62.90;;;;;;4956293;28;82306;-41
2023/08/11 00:05:19;;;;;;;;;;;19.20;62.90;;;;;;4956591;28;82815;-40
2023/08/11 00:07:45;;;;;;;;;;;19.20;63.00;;;;;;4950939;28;82240;-42
2023/08/11 00:10:12;;;;;;;;;;;19.20;62.80;;;;;;4958627;28;82839;-41
2023/08/11 00:12:39;;;;;;;;;;;19.20;62.90;;;;;;4957206;28;83081;-41
2023/08/11 00:15:06;;;;;;;;;;;19.20;62.80;;;;;;4954202;28;82080;-42
2023/08/11 00:17:32;;;;;;;;;;;19.20;62.80;;;;;;4961932;28;82544;-42
2023/08/11 00:20:00;;;;;;;;;;;19.10;62.70;;;;;;4960024;28;82208;-41
2023/08/11 00:22:26;;;;;;;;;;;19.10;62.70;;;;;;4957475;28;82638;-42
2023/08/11 00:24:51;;;;;;;;;;;19.10;63.00;;;;;;4955944;28;88239;-42
2023/08/11 00:27:17;;;;;;;;;;;19.10;62.70;;;;;;4952559;28;86366;-42
2023/08/11 00:29:42;;;;;;;;;;;19.10;62.90;;;;;;4953359;28;87094;-41
2023/08/11 00:32:08;;;;;;;;;;;19.10;62.90;;;;;;4952602;28;89547;-40
2023/08/11 00:34:36;;;;;;;;;;;19.10;62.90;;;;;;4955173;28;88064;-40
2023/08/11 00:37:02;;;;;;;;;;;19.10;62.80;;;;;;4956724;28;88643;-42
2023/08/11 00:39:28;;;;;;;;;;;19.10;63.60;;;;;;4956443;28;87432;-42
2023/08/11 00:41:53;;;;;;;;;;;19.10;62.70;;;;;;4951813;28;87722;-40
2023/08/11 00:44:19;;;;;;;;;;;19.00;62.80;;;;;;4954179;28;88160;-40
2023/08/11 00:46:45;;;;;;;;;;;19.00;63.00;;;;;;4956089;28;87209;-41
2023/08/11 00:49:11;;;;;;;;;;;19.00;62.70;;;;;;4954200;28;87211;-42
2023/08/11 00:51:36;;;;;;;;;;;19.10;62.70;;;;;;4955407;28;87477;-39
2023/08/11 00:54:02;;;;;;;;;;;19.00;62.80;;;;;;4956501;28;87169;-42
2023/08/11 00:56:28;;;;;;;;;;;19.00;62.60;;;;;;4950233;28;89112;-42
2023/08/11 00:58:54;;;;;;;;;;;19.00;62.80;;;;;;4954832;28;89170;-42
2023/08/11 01:01:19;;;;;;;;;;;19.00;62.70;;;;;;4955090;28;87229;-41
2023/08/11 01:03:47;;;;;;;;;;;19.00;62.90;;;;;;4953350;28;88062;-42
2023/08/11 01:06:16;;;;;;;;;;;19.00;62.80;;;;;;4956039;28;87090;-42
2023/08/11 01:08:48;;;;;;;;;;;19.00;63.00;;;;;;4955527;28;87439;-40
2023/08/11 01:11:23;;;;;;;;;;;19.00;62.80;;;;;;4949122;28;88117;-41
2023/08/11 01:13:53;;;;;;;;;;;19.00;62.80;;;;;;4954401;28;87319;-42
2023/08/11 01:16:20;;;;;;;;;;;19.00;62.70;;;;;;4949330;28;87553;-40
2023/08/11 01:18:47;;;;;;;;;;;19.00;62.80;;;;;;4954386;28;88013;-40
2023/08/11 01:21:13;;;;;;;;;;;18.90;62.70;;;;;;4953698;28;87118;-41
2023/08/11 01:23:40;;;;;;;;;;;18.90;62.70;;;;;;4954903;28;89600;-42
2023/08/11 01:26:06;;;;;;;;;;;18.90;62.80;;;;;;4954621;28;87127;-41
2023/08/11 01:28:33;;;;;;;;;;;18.90;62.70;;;;;;4952929;28;87384;-42
2023/08/11 01:30:59;;;;;;;;;;;18.90;62.60;;;;;;4952873;28;88133;-42
2023/08/11 01:33:24;;;;;;;;;;;18.90;62.60;;;;;;4948722;28;87113;-42
2023/08/11 01:35:50;;;;;;;;;;;18.90;62.60;;;;;;4954342;28;87512;-40
2023/08/11 01:38:15;;;;;;;;;;;18.90;62.80;;;;;;4955682;28;87934;-42
2023/08/11 01:40:41;;;;;;;;;;;18.90;62.60;;;;;;4951440;28;86431;-42
2023/08/11 01:43:08;;;;;;;;;;;18.90;62.80;;;;;;4951650;28;87383;-40
2023/08/11 01:45:33;;;;;;;;;;;18.80;62.60;;;;;;4955109;28;87198;-40
2023/08/11 01:48:00;;;;;;;;;;;18.80;62.90;;;;;;4952659;28;88003;-42
2023/08/11 01:50:27;;;;;;;;;;;18.80;62.60;;;;;;4953405;28;88215;-40
2023/08/11 01:52:54;;;;;;;;;;;18.80;62.60;;;;;;4953780;28;87105;-42
2023/08/11 01:55:20;;;;;;;;;;;18.80;62.50;;;;;;4955644;28;87469;-40
2023/08/11 01:57:46;;;;;;;;;;;18.80;62.60;;;;;;4949408;28;88192;-41
2023/08/11 02:00:16;;;;;;;;;;;18.80;62.50;;;;;;4954306;28;87090;-40
2023/08/11 02:02:42;;;;;;;;;;;18.80;62.40;;;;;;4952209;28;87665;-42
2023/08/11 02:05:11;;;;;;;;;;;18.80;62.50;;;;;;4958106;28;86525;-39
2023/08/11 02:07:40;;;;;;;;;;;18.80;62.50;;;;;;4954515;28;87105;-40
2023/08/11 02:10:06;;;;;;;;;;;18.80;62.40;;;;;;4952092;28;87834;-42
2023/08/11 02:12:32;;;;;;;;;;;18.80;62.40;;;;;;4951040;28;88424;-42
2023/08/11 02:14:57;;;;;;;;;;;18.80;62.40;;;;;;4954531;28;88379;-41
2023/08/11 02:17:24;;;;;;;;;;;18.80;62.50;;;;;;4952727;28;87292;-40
2023/08/11 02:19:50;;;;;;;;;;;18.80;62.30;;;;;;4952838;28;87427;-42
2023/08/11 02:22:16;;;;;;;;;;;18.80;62.50;;;;;;4953839;28;87308;-42
2023/08/11 02:24:41;;;;;;;;;;;18.70;62.60;;;;;;4954744;28;88231;-42
2023/08/11 02:27:09;;;;;;;;;;;18.70;62.50;;;;;;4955377;28;87352;-41
2023/08/11 02:29:34;;;;;;;;;;;18.70;62.30;;;;;;4950737;28;87259;-42
2023/08/11 02:32:03;;;;;;;;;;;18.70;62.50;;;;;;4953968;28;87102;-40
2023/08/11 02:34:30;;;;;;;;;;;18.70;62.50;;;;;;4951839;28;87751;-40
2023/08/11 02:36:56;;;;;;;;;;;18.70;62.40;;;;;;4951006;28;89164;-40
2023/08/11 02:39:21;;;;;;;;;;;18.70;62.40;;;;;;4954222;28;87575;-42
2023/08/11 02:41:47;;;;;;;;;;;18.70;62.50;;;;;;4951388;28;87056;-41
2023/08/11 02:44:13;;;;;;;;;;;18.70;62.30;;;;;;4951058;28;88373;-41
2023/08/11 02:46:38;;;;;;;;;;;18.60;62.20;;;;;;4953438;28;87145;-42
2023/08/11 02:49:04;;;;;;;;;;;18.70;62.20;;;;;;4956853;28;87507;-41
2023/08/11 02:51:30;;;;;;;;;;;18.60;62.30;;;;;;4952024;28;87862;-41
2023/08/11 02:53:56;;;;;;;;;;;18.60;62.50;;;;;;4954107;28;87468;-40
2023/08/11 02:56:21;;;;;;;;;;;18.60;62.20;;;;;;4950454;28;88168;-40
2023/08/11 02:58:48;;;;;;;;;;;18.60;62.40;;;;;;4949037;28;87229;-41
2023/08/11 03:01:14;;;;;;;;;;;18.60;62.40;;;;;;4947834;28;87960;-41
2023/08/11 03:03:42;;;;;;;;;;;18.60;62.20;;;;;;4953149;28;87527;-42
2023/08/11 03:06:08;;;;;;;;;;;18.60;62.30;;;;;;4950162;28;87125;-42
2023/08/11 03:08:34;;;;;;;;;;;18.60;62.40;;;;;;4951282;28;87536;-41
2023/08/11 03:10:59;;;;;;;;;;;18.60;62.30;;;;;;4956677;28;88662;-39
2023/08/11 03:13:28;;;;;;;;;;;18.60;62.30;;;;;;4950306;28;87488;-42
2023/08/11 03:15:54;;;;;;;;;;;18.60;62.10;;;;;;4954020;28;87234;-42
2023/08/11 03:18:20;;;;;;;;;;;18.60;62.20;;;;;;4952886;28;86440;-43
2023/08/11 03:20:45;;;;;;;;;;;18.50;62.20;;;;;;4953343;28;88665;-40
2023/08/11 03:23:11;;;;;;;;;;;18.60;62.40;;;;;;4951478;28;89259;-40
2023/08/11 03:25:36;;;;;;;;;;;18.50;62.20;;;;;;4953781;28;88024;-40
2023/08/11 03:28:03;;;;;;;;;;;18.50;62.20;;;;;;4950063;28;88413;-40
2023/08/11 03:30:29;;;;;;;;;;;18.40;62.10;;;;;;4946385;28;88120;-40
2023/08/11 03:32:54;;;;;;;;;;;18.50;62.40;;;;;;4945561;28;87487;-40
2023/08/11 03:35:20;;;;;;;;;;;18.50;62.30;;;;;;4950517;28;88226;-41
2023/08/11 03:37:45;;;;;;;;;;;18.40;62.20;;;;;;4953044;28;87140;-42
2023/08/11 03:40:16;;;;;;;;;;;18.50;62.30;;;;;;4929774;28;89171;-41
2023/08/11 03:42:42;;;;;;;;;;;18.40;62.30;;;;;;4943157;28;87115;-40
2023/08/11 03:45:12;;;;;;;;;;;18.40;62.20;;;;;;4951272;28;87158;-40
2023/08/11 03:47:38;;;;;;;;;;;18.40;62.00;;;;;;4951200;28;87668;-41
2023/08/11 03:50:06;;;;;;;;;;;18.40;61.90;;;;;;4944305;28;90514;-42
2023/08/11 03:52:32;;;;;;;;;;;18.40;62.00;;;;;;4949840;28;88854;-41
2023/08/11 03:54:57;;;;;;;;;;;18.40;61.90;;;;;;4945997;28;87977;-40
2023/08/11 03:57:23;;;;;;;;;;;18.40;62.00;;;;;;4951058;28;87473;-40
2023/08/11 03:59:48;;;;;;;;;;;18.40;62.30;;;;;;4950577;28;87572;-40
2023/08/11 04:02:14;;;;;;;;;;;18.40;61.90;;;;;;4948701;28;87998;-41
2023/08/11 04:04:39;;;;;;;;;;;18.30;62.00;;;;;;4944462;28;87692;-42
2023/08/11 04:07:05;;;;;;;;;;;18.40;62.00;;;;;;4950220;28;86553;-41
2023/08/11 04:09:31;;;;;;;;;;;18.30;62.10;;;;;;4951896;28;87259;-41
2023/08/11 04:11:57;;;;;;;;;;;18.30;61.90;;;;;;4946666;28;87108;-40
2023/08/11 04:14:22;;;;;;;;;;;18.30;61.80;;;;;;4948536;28;88071;-40
2023/08/11 04:16:48;;;;;;;;;;;18.30;61.80;;;;;;4949962;28;87283;-41
2023/08/11 04:19:13;;;;;;;;;;;18.30;61.90;;;;;;4952957;28;87515;-41
2023/08/11 04:21:40;;;;;;;;;;;18.30;61.90;;;;;;4942872;28;88547;-40
2023/08/11 04:24:06;;;;;;;;;;;18.30;61.80;;;;;;4942167;28;87270;-41
2023/08/11 04:26:33;;;;;;;;;;;18.30;62.40;;;;;;4950081;28;87407;-42
2023/08/11 04:28:59;;;;;;;;;;;18.30;61.80;;;;;;4952324;28;88231;-42
2023/08/11 04:31:24;;;;;;;;;;;18.30;61.80;;;;;;4933390;28;86986;-41
2023/08/11 04:33:50;;;;;;;;;;;18.30;61.60;;;;;;4948812;28;87573;-40
2023/08/11 04:36:15;;;;;;;;;;;18.30;61.70;;;;;;4946451;28;89958;-41
2023/08/11 04:38:41;;;;;;;;;;;18.20;61.70;;;;;;4949180;28;87978;-41
2023/08/11 04:41:06;;;;;;;;;;;18.20;61.80;;;;;;4941195;28;87104;-42
2023/08/11 04:43:32;;;;;;;;;;;18.20;61.70;;;;;;4941862;28;87229;-40
2023/08/11 04:45:57;;;;;;;;;;;18.20;61.70;;;;;;4950135;28;87591;-42
2023/08/11 04:48:23;;;;;;;;;;;18.30;62.50;;;;;;4950196;28;88146;-40
2023/08/11 04:50:50;;;;;;;;;;;18.20;61.90;;;;;;4948777;28;87176;-40
2023/08/11 04:53:15;;;;;;;;;;;18.20;61.90;;;;;;4948461;28;89658;-41
2023/08/11 04:55:41;;;;;;;;;;;18.20;61.80;;;;;;4951939;28;87465;-40
2023/08/11 04:58:06;;;;;;;;;;;18.20;61.70;;;;;;4956047;28;87123;-39
2023/08/11 05:00:33;;;;;;;;;;;18.20;61.60;;;;;;4954166;28;87952;-40
2023/08/11 05:02:59;;;;;;;;;;;18.20;61.60;;;;;;4949039;28;88200;-42
2023/08/11 05:05:26;;;;;;;;;;;18.20;61.60;;;;;;4945675;28;88906;-41
2023/08/11 05:07:51;;;;;;;;;;;18.20;61.50;;;;;;4955091;28;88147;-41
2023/08/11 05:10:17;;;;;;;;;;;18.20;61.50;;;;;;4946247;28;87996;-42
2023/08/11 05:12:44;;;;;;;;;;;18.20;61.50;;;;;;4946962;28;87559;-41
2023/08/11 05:15:09;;;;;;;;;;;18.20;61.40;;;;;;4942551;28;88358;-41
2023/08/11 05:17:35;;;;;;;;;;;18.20;61.60;;;;;;4953998;28;87097;-41
2023/08/11 05:20:01;;;;;;;;;;;18.20;61.60;;;;;;4948801;28;87520;-42
2023/08/11 05:22:28;;;;;;;;;;;18.20;61.60;;;;;;4948641;28;88145;-41
2023/08/11 05:24:54;;;;;;;;;;;18.20;61.60;;;;;;4951252;28;88849;-41
2023/08/11 05:27:19;;;;;;;;;;;18.20;61.60;;;;;;4952870;28;89019;-41
2023/08/11 05:29:47;;;;;;;;;;;18.20;61.50;;;;;;4948767;28;88354;-42
2023/08/11 05:32:12;;;;;;;;;;;18.20;61.50;;;;;;4943571;28;87183;-42
2023/08/11 05:34:38;;;;;;;;;;;18.20;61.60;;;;;;4948104;28;90075;-41
2023/08/11 05:37:05;;;;;;;;;;;18.20;61.60;;;;;;4953591;28;87044;-40
2023/08/11 05:39:30;;;;;;;;;;;18.20;61.50;;;;;;4951820;28;87561;-40
2023/08/11 05:41:56;;;;;;;;;;;18.20;61.50;;;;;;4945078;28;88092;-39
2023/08/11 05:44:22;;;;;;;;;;;18.20;62.20;;;;;;4945878;28;87497;-41
2023/08/11 05:46:47;;;;;;;;;;;18.20;61.70;;;;;;4955014;28;88104;-40
2023/08/11 05:49:13;;;;;;;;;;;18.20;61.60;;;;;;4955279;28;87122;-40
2023/08/11 05:51:38;;;;;;;;;;;18.20;61.60;;;;;;4950150;28;89218;-40
2023/08/11 05:54:04;;;;;;;;;;;18.20;61.60;;;;;;4947169;28;87894;-41
2023/08/11 05:56:30;;;;;;;;;;;18.20;61.60;;;;;;4953224;28;87241;-39
2023/08/11 05:58:55;;;;;;;;;;;18.10;61.70;;;;;;4949571;28;87112;-42
2023/08/11 06:01:21;;;;;;;;;;;18.10;61.70;;;;;;4948033;28;88056;-42
2023/08/11 06:03:46;;;;;;;;;;;18.20;61.80;;;;;;4943510;28;87367;-40
2023/08/11 06:06:12;;;;;;;;;;;18.10;61.60;;;;;;4945749;28;88191;-42
2023/08/11 06:08:38;;;;;;;;;;;18.10;61.70;;;;;;4950027;28;86961;-40
2023/08/11 06:11:03;;;;;;;;;;;18.10;61.80;;;;;;4949487;28;87696;-41
2023/08/11 06:13:29;;;;;;;;;;;18.10;61.90;;;;;;4937536;28;88044;-40
2023/08/11 06:15:54;;;;;;;;;;;18.10;62.10;;;;;;4952033;28;88047;-41
2023/08/11 06:18:20;;;;;;;;;;;18.10;62.10;;;;;;4949924;28;89486;-42
2023/08/11 06:20:47;;;;;;;;;;;18.10;62.30;;;;;;4947533;28;87839;-40
2023/08/11 06:23:12;;;;;;;;;;;18.10;62.40;;;;;;4952082;28;88460;-41
2023/08/11 06:25:38;;;;;;;;;;;18.10;62.40;;;;;;4954109;28;88069;-42
2023/08/11 06:28:04;;;;;;;;;;;18.10;62.40;;;;;;4948484;28;87009;-42
2023/08/11 06:30:30;;;;;;;;;;;18.10;62.50;;;;;;4945100;28;87263;-40
2023/08/11 06:32:56;;;;;;;;;;;18.10;63.00;;;;;;4948671;28;86558;-40
2023/08/11 06:35:22;;;;;;;;;;;18.10;62.40;;;;;;4953351;28;87110;-42
2023/08/11 06:37:47;;;;;;;;;;;18.10;62.50;;;;;;4953991;28;87525;-40
2023/08/11 06:40:13;;;;;;;;;;;18.10;62.60;;;;;;4948518;28;89687;-42
2023/08/11 06:42:39;;;;;;;;;;;18.10;62.60;;;;;;4945789;28;88936;-42
2023/08/11 06:45:05;;;;;;;;;;;18.10;62.50;;;;;;4955652;28;87478;-40
2023/08/11 06:47:31;;;;;;;;;;;18.10;62.70;;;;;;4951696;28;87068;-40
2023/08/11 06:49:57;;;;;;;;;;;18.10;62.90;;;;;;4948910;28;87190;-41
2023/08/11 06:52:22;;;;;;;;;;;18.10;62.80;;;;;;4945169;28;87690;-42
2023/08/11 06:54:48;;;;;;;;;;;18.10;62.50;;;;;;4951390;28;87172;-41
2023/08/11 06:57:14;;;;;;;;;;;18.10;62.80;;;;;;4955351;28;87608;-41
2023/08/11 06:59:39;;;;;;;;;;;18.10;63.00;;;;;;4944833;28;87172;-42
2023/08/11 07:02:05;;;;;;;;;;;18.10;63.00;;;;;;4948929;28;88161;-41
2023/08/11 07:04:31;;;;;;;;;;;18.10;62.70;;;;;;4952392;28;88293;-40
2023/08/11 07:06:56;;;;;;;;;;;18.10;62.80;;;;;;4954128;28;89152;-40
2023/08/11 07:09:22;;;;;;;;;;;18.10;62.90;;;;;;4944636;28;87202;-41
2023/08/11 07:11:47;;;;;;;;;;;18.10;63.00;;;;;;4943194;28;88216;-41
2023/08/11 07:14:13;;;;;;;;;;;18.10;63.00;;;;;;4945966;28;87789;-41
2023/08/11 07:16:39;;;;;;;;;;;18.10;63.00;;;;;;4953389;28;87177;-42
2023/08/11 07:19:05;;;;;;;;;;;18.10;62.90;;;;;;4948532;28;87951;-41
2023/08/11 07:21:33;;;;;;;;;;;18.10;63.00;;;;;;4952209;28;86378;-42
2023/08/11 07:23:58;;;;;;;;;;;18.10;63.30;;;;;;4944722;28;87094;-41
2023/08/11 07:26:24;;;;;;;;;;;18.20;63.20;;;;;;4951229;28;88158;-40
2023/08/11 07:28:49;;;;;;;;;;;18.20;63.00;;;;;;4954494;28;89899;-41
2023/08/11 07:31:15;;;;;;;;;;;18.10;63.10;;;;;;4948102;28;88211;-42
2023/08/11 07:33:42;;;;;;;;;;;18.20;63.10;;;;;;4945942;28;88812;-40
2023/08/11 07:36:08;;;;;;;;;;;18.20;63.20;;;;;;4950553;28;87341;-40
2023/08/11 07:38:33;;;;;;;;;;;18.20;63.00;;;;;;4953094;28;88070;-42
2023/08/11 07:40:59;;;;;;;;;;;18.20;63.40;;;;;;4947869;28;87326;-40
2023/08/11 07:43:25;;;;;;;;;;;18.20;63.50;;;;;;4950701;28;87880;-41
2023/08/11 07:45:50;;;;;;;;;;;18.20;63.60;;;;;;4943950;28;87944;-40
2023/08/11 07:48:18;;;;;;;;;;;18.20;63.30;;;;;;4953868;28;87374;-42
2023/08/11 07:50:44;;;;;;;;;;;18.20;63.30;;;;;;4947363;28;88346;-40
2023/08/11 07:53:10;;;;;;;;;;;18.20;63.20;;;;;;4942779;28;88058;-42
2023/08/11 07:55:35;;;;;;;;;;;18.20;63.20;;;;;;4946786;28;88326;-41
2023/08/11 07:58:01;;;;;;;;;;;18.20;63.30;;;;;;4953787;28;88781;-41
2023/08/11 08:00:26;;;;;;;;;;;18.20;63.50;;;;;;4947839;28;87802;-40
2023/08/11 08:02:52;;;;;;;;;;;18.20;63.60;;;;;;4948179;28;87586;-40
2023/08/11 08:05:18;;;;;;;;;;;18.20;63.40;;;;;;4948370;28;88085;-43
2023/08/11 08:07:45;;;;;;;;;;;18.30;63.40;;;;;;4951335;28;87398;-44
2023/08/11 08:10:11;;;;;;;;;;;18.20;63.40;;;;;;4945662;28;88977;-46
2023/08/11 08:12:37;;;;;;;;;;;18.20;63.90;;;;;;4948009;28;87144;-42
2023/08/11 08:15:04;;;;;;;;;;;18.20;63.80;;;;;;4946126;28;87479;-42
2023/08/11 08:17:31;;;;;;;;;;;18.30;63.50;;;;;;4951128;28;90674;-42
2023/08/11 08:19:56;;;;;;;;;;;18.30;64.20;;;;;;4944534;28;87240;-41
2023/08/11 08:22:22;;;;;;;;;;;18.30;64.00;;;;;;4946360;28;87937;-42
2023/08/11 08:24:48;;;;;;;;;;;18.30;64.70;;;;;;4949375;28;88014;-42
2023/08/11 08:27:15;;;;;;;;;;;18.40;64.60;;;;;;4952511;28;87404;-42
2023/08/11 08:29:40;;;;;;;;;;;18.40;64.40;;;;;;4949999;28;88973;-41
2023/08/11 08:32:06;;;;;;;;;;;18.40;63.50;;;;;;4950834;28;88197;-42
2023/08/11 08:34:31;;;;;;;;;;;18.50;63.80;;;;;;4951885;28;87762;-42
2023/08/11 08:36:57;;;;;;;;;;;18.50;63.30;;;;;;4953648;28;88071;-42
2023/08/11 08:39:22;;;;;;;;;;;18.50;62.70;;;;;;4949244;28;87566;-41
2023/08/11 08:41:49;;;;;;;;;;;18.60;62.90;;;;;;4942113;28;88476;-42
2023/08/11 08:44:15;;;;;;;;;;;18.60;63.60;;;;;;4950058;28;87882;-42
2023/08/11 08:46:41;;;;;;;;;;;18.60;63.20;;;;;;4952825;28;87036;-43
2023/08/11 08:49:33;;;;;;;;;;;18.70;63.70;;;;;;4942594;28;87399;-42
2023/08/11 08:51:59;;;;;;;;;;;18.70;64.80;;;;;;4938950;28;88741;-39
2023/08/11 08:54:24;;;;;;;;;;;18.70;64.40;;;;;;4955244;28;87128;-40
2023/08/11 08:56:53;;;;;;;;;;;18.70;64.20;;;;;;4955136;28;88279;-40
2023/08/11 08:59:19;;;;;;;;;;;18.70;63.50;;;;;;4941989;28;86405;-40
2023/08/11 09:01:45;;;;;;;;;;;18.70;63.60;;;;;;4947750;28;87214;-41
2023/08/11 09:04:11;;;;;;;;;;;18.80;63.70;;;;;;4952306;28;87846;-41
2023/08/11 09:06:38;;;;;;;;;;;18.90;63.30;;;;;;4954494;28;88031;-40
2023/08/11 09:09:04;;;;;;;;;;;19.00;63.20;;;;;;4948057;28;88427;-41
2023/08/11 09:11:30;;;;;;;;;;;18.80;62.60;;;;;;4946335;28;88357;-41
2023/08/11 09:14:02;;;;;;;;;;;18.80;62.90;;;;;;4953166;28;87103;-43
2023/08/11 09:16:28;;;;;;;;;;;18.80;62.80;;;;;;4951035;28;87392;-40
2023/08/11 09:18:53;;;;;;;;;;;18.80;62.60;;;;;;4943685;28;87238;-40
2023/08/11 09:21:23;;;;;;;;;;;18.80;62.70;;;;;;4946854;28;87612;-41
2023/08/11 09:23:51;;;;;;;;;;;18.80;62.60;;;;;;4954671;28;89244;-40
2023/08/11 09:26:16;;;;;;;;;;;18.80;63.10;;;;;;4946748;28;87534;-41
2023/08/11 09:28:42;;;;;;;;;;;18.90;62.50;;;;;;4951675;28;87505;-41
2023/08/11 09:31:08;;;;;;;;;;;18.90;62.00;;;;;;4947423;28;89626;-40
2023/08/11 09:33:34;;;;;;;;;;;18.90;62.10;;;;;;4955203;28;87202;-41
2023/08/11 09:35:59;;;;;;;;;;;18.90;61.80;;;;;;4944419;28;87412;-40
2023/08/11 09:38:25;;;;;;;;;;;18.90;62.00;;;;;;4941777;28;87491;-41
2023/08/11 09:40:51;;;;;;;;;;;19.00;62.20;;;;;;4950029;28;87540;-40
2023/08/11 09:43:17;;;;;;;;;;;19.10;61.90;;;;;;4951046;28;88428;-40
2023/08/11 09:45:42;;;;;;;;;;;19.10;62.00;;;;;;4945568;28;87182;-41
2023/08/11 09:48:08;;;;;;;;;;;19.20;62.50;;;;;;4945568;28;87652;-42
2023/08/11 09:50:34;;;;;;;;;;;19.10;62.30;;;;;;4951512;28;87826;-39
2023/08/11 09:53:01;;;;;;;;;;;19.20;63.00;;;;;;4956011;28;87389;-41
2023/08/11 09:55:28;;;;;;;;;;;19.20;63.00;;;;;;4946074;28;88024;-39
2023/08/11 09:57:56;;;;;;;;;;;19.20;61.70;;;;;;4953202;28;88723;-40
2023/08/11 10:00:21;;;;;;;;;;;19.30;62.10;;;;;;4951426;28;87206;-40
2023/08/11 10:02:52;;;;;;;;;;;19.30;61.90;;;;;;4952402;28;87847;-41
2023/08/11 10:05:18;;;;;;;;;;;19.30;61.70;;;;;;4942636;28;87546;-40
2023/08/11 10:07:46;;;;;;;;;;;19.30;61.30;;;;;;4943384;28;87411;-41
2023/08/11 10:10:16;;;;;;;;;;;19.20;60.80;;;;;;4953037;28;87681;-40
2023/08/11 10:12:50;;;;;;;;;;;19.30;61.40;;;;;;4951835;28;86246;-41
2023/08/11 10:15:18;;;;;;;;;;;19.30;61.00;;;;;;4939141;28;87164;-40
2023/08/11 10:17:43;;;;;;;;;;;19.30;60.50;;;;;;4944357;28;88217;-41
2023/08/11 10:20:09;;;;;;;;;;;19.40;60.60;;;;;;4955967;28;88199;-40
2023/08/11 10:22:35;;;;;;;;;;;19.40;60.60;;;;;;4951892;28;87118;-41
2023/08/11 10:25:04;;;;;;;;;;;19.40;60.50;;;;;;4946379;28;87209;-41
2023/08/11 10:27:30;;;;;;;;;;;19.50;61.00;;;;;;4951948;28;88229;-41
2023/08/11 10:29:56;;;;;;;;;;;19.50;60.00;;;;;;4952377;28;87956;-40
2023/08/11 10:32:23;;;;;;;;;;;19.50;60.60;;;;;;4949614;28;87230;-40
2023/08/11 10:34:49;;;;;;;;;;;19.50;60.40;;;;;;4949622;28;87056;-40
2023/08/11 10:37:15;;;;;;;;;;;19.60;60.80;;;;;;4942961;28;87812;-41
2023/08/11 10:39:40;;;;;;;;;;;19.60;61.10;;;;;;4952967;28;87170;-40
2023/08/11 10:42:10;;;;;;;;;;;19.60;60.80;;;;;;4956518;28;87275;-40
2023/08/11 10:44:35;;;;;;;;;;;19.60;60.80;;;;;;4942633;28;88923;-40
2023/08/11 10:47:02;;;;;;;;;;;19.70;60.40;;;;;;4947370;28;88474;-40
2023/08/11 10:49:41;;;;;;;;;;;19.70;60.00;;;;;;4952257;28;87915;-40
2023/08/11 10:52:06;;;;;;;;;;;19.70;59.80;;;;;;4945299;28;87145;-41
2023/08/11 10:54:33;;;;;;;;;;;19.70;59.80;;;;;;4951855;28;87284;-40
2023/08/11 10:56:59;;;;;;;;;;;19.80;60.50;;;;;;4948425;28;89630;-40
2023/08/11 10:59:26;;;;;;;;;;;19.80;60.10;;;;;;4952499;28;87109;-40
2023/08/11 11:01:53;;;;;;;;;;;19.80;59.20;;;;;;4946138;28;90208;-41
2023/08/11 11:04:20;;;;;;;;;;;19.80;58.40;;;;;;4949776;28;88031;-40
2023/08/11 11:06:47;;;;;;;;;;;19.90;58.80;;;;;;4951381;28;87328;-40
2023/08/11 11:09:13;;;;;;;;;;;20.00;59.90;;;;;;4952222;28;89403;-40
2023/08/11 11:11:39;;;;;;;;;;;20.00;60.20;;;;;;4943468;28;87194;-40
2023/08/11 11:14:05;;;;;;;;;;;20.00;60.50;;;;;;4935781;28;89002;-39
2023/08/11 11:16:32;;;;;;;;;;;20.00;60.20;;;;;;4949333;28;91318;-40
2023/08/11 11:19:01;;;;;;;;;;;20.10;61.50;;;;;;4953311;28;87121;-43
2023/08/11 11:21:27;;;;;;;;;;;20.20;63.00;;;;;;4944355;28;87459;-42
2023/08/11 11:23:52;;;;;;;;;;;20.20;62.00;;;;;;4942415;28;87782;-42
2023/08/11 11:26:25;;;;;;;;;;;20.30;62.40;;;;;;4954186;28;86736;-41
2023/08/11 11:28:51;;;;;;;;;;;20.30;62.20;;;;;;4949419;28;87634;-41
2023/08/11 11:31:17;;;;;;;;;;;20.20;62.60;;;;;;4941419;28;87773;-44
2023/08/11 11:33:42;;;;;;;;;;;20.20;62.00;;;;;;4946498;28;88129;-44
2023/08/11 11:36:08;;;;;;;;;;;20.30;63.10;;;;;;4950986;28;87793;-42
2023/08/11 11:38:34;;;;;;;;;;;20.40;63.40;;;;;;4949042;28;87625;-44
2023/08/11 11:40:59;;;;;;;;;;;20.50;62.40;;;;;;4949690;28;87367;-48
2023/08/11 11:43:25;;;;;;;;;;;20.40;61.40;;;;;;4941185;28;88201;-45
2023/08/11 11:45:52;;;;;;;;;;;20.40;60.30;;;;;;4941177;28;87131;-46
2023/08/11 11:48:21;;;;;;;;;;;20.50;60.60;;;;;;4945931;28;87309;-44
2023/08/11 11:50:47;;;;;;;;;;;20.40;61.00;;;;;;4943728;28;86378;-50
2023/08/11 11:53:12;;;;;;;;;;;20.40;61.60;;;;;;4943421;28;87189;-45
2023/08/11 11:55:45;;;;;;;;;;;20.40;61.40;;;;;;4942975;28;87938;-46
2023/08/11 11:58:11;;;;;;;;;;;20.40;62.00;;;;;;4940268;28;88749;-44
2023/08/11 12:00:37;;;;;;;;;;;20.50;60.80;;;;;;4939247;28;88401;-43
2023/08/11 12:03:03;;;;;;;;;;;20.50;61.20;;;;;;4943380;28;87263;-44
2023/08/11 12:05:28;;;;;;;;;;;20.50;61.70;;;;;;4951117;28;87253;-45
2023/08/11 12:07:54;;;;;;;;;;;20.50;61.80;;;;;;4946070;28;88309;-46
2023/08/11 12:10:30;;;;;;;;;;;20.50;62.10;;;;;;4953660;28;87162;-45
2023/08/11 12:12:59;;;;;;;;;;;20.50;62.00;;;;;;4944539;28;87599;-48
2023/08/11 12:15:24;;;;;;;;;;;20.60;61.30;;;;;;4942298;28;88790;-48
2023/08/11 12:17:50;;;;;;;;;;;20.70;61.30;;;;;;4955369;28;87147;-44
2023/08/11 12:20:16;;;;;;;;;;;20.80;61.50;;;;;;4954011;28;87649;-46
2023/08/11 12:22:42;;;;;;;;;;;20.80;60.20;;;;;;4951866;28;88995;-43
2023/08/11 12:25:08;;;;;;;;;;;20.70;59.30;;;;;;4952119;28;87116;-42
2023/08/11 12:27:35;;;;;;;;;;;20.80;58.20;;;;;;4955228;28;87441;-46
2023/08/11 12:30:01;;;;;;;;;;;20.80;58.60;;;;;;4943911;28;88431;-44
2023/08/11 12:32:26;;;;;;;;;;;20.80;58.90;;;;;;4945477;28;87635;-43
2023/08/11 12:34:52;;;;;;;;;;;20.80;57.80;;;;;;4954362;28;88057;-46
2023/08/11 12:37:17;;;;;;;;;;;20.90;57.80;;;;;;4954536;28;87074;-47
2023/08/11 12:39:43;;;;;;;;;;;20.90;57.70;;;;;;4947745;28;86901;-46
2023/08/11 12:42:09;;;;;;;;;;;21.00;57.80;;;;;;4950794;28;88740;-47
2023/08/11 12:44:34;;;;;;;;;;;20.90;58.00;;;;;;4954468;28;87112;-47
2023/08/11 12:47:00;;;;;;;;;;;21.00;58.30;;;;;;4947619;28;88012;-46
2023/08/11 12:49:25;;;;;;;;;;;21.00;58.40;;;;;;4943718;28;87527;-50
2023/08/11 12:51:52;;;;;;;;;;;21.00;58.50;;;;;;4953900;28;87799;-47
2023/08/11 12:54:18;;;;;;;;;;;21.00;59.20;;;;;;4955205;28;87996;-46
2023/08/11 12:56:44;;;;;;;;;;;21.00;58.70;;;;;;4952657;28;87231;-47
2023/08/11 12:59:10;;;;;;;;;;;21.00;58.80;;;;;;4951995;28;87408;-46
2023/08/11 13:01:35;;;;;;;;;;;21.00;58.80;;;;;;4947641;28;88935;-45
2023/08/11 13:04:03;;;;;;;;;;;21.00;58.70;;;;;;4957114;28;86459;-47
2023/08/11 13:06:29;;;;;;;;;;;21.00;58.60;;;;;;4946744;28;87210;-46
2023/08/11 13:08:55;;;;;;;;;;;21.00;58.60;;;;;;4948112;28;88854;-47
2023/08/11 13:11:20;;;;;;;;;;;21.00;58.70;;;;;;4950346;28;88020;-47
2023/08/11 13:13:47;;;;;;;;;;;21.00;58.70;;;;;;4957905;28;88399;-46
2023/08/11 13:16:12;;;;;;;;;;;21.00;58.70;;;;;;4947009;28;87098;-46
2023/08/11 13:18:38;;;;;;;;;;;21.00;58.80;;;;;;4939904;28;87237;-44
2023/08/11 13:21:04;;;;;;;;;;;21.00;58.80;;;;;;4951694;28;88065;-45
2023/08/11 13:23:31;;;;;;;;;;;21.00;58.90;;;;;;4956762;28;86929;-47
2023/08/11 13:25:57;;;;;;;;;;;21.00;58.90;;;;;;4951203;28;87418;-47
2023/08/11 13:28:23;;;;;;;;;;;21.10;59.00;;;;;;4942402;28;88863;-47
2023/08/11 13:30:48;;;;;;;;;;;21.10;59.00;;;;;;4950771;28;87083;-47
2023/08/11 13:33:14;;;;;;;;;;;21.10;59.00;;;;;;4955071;28;87136;-47
2023/08/11 13:35:39;;;;;;;;;;;21.10;59.10;;;;;;4951353;28;89134;-47
2023/08/11 13:38:05;;;;;;;;;;;21.10;59.10;;;;;;4943912;28;88519;-46
2023/08/11 13:40:31;;;;;;;;;;;21.10;59.00;;;;;;4956081;28;88134;-47
2023/08/11 13:42:57;;;;;;;;;;;21.20;59.10;;;;;;4951029;28;87172;-47
2023/08/11 13:45:22;;;;;;;;;;;21.20;59.00;;;;;;4941858;28;88329;-47
2023/08/11 13:47:48;;;;;;;;;;;21.20;58.90;;;;;;4947091;28;88118;-46
2023/08/11 13:50:14;;;;;;;;;;;21.20;59.10;;;;;;4954382;28;87140;-45
2023/08/11 13:52:39;;;;;;;;;;;21.20;59.10;;;;;;4955764;28;87478;-46
2023/08/11 13:55:06;;;;;;;;;;;21.20;59.20;;;;;;4953377;28;88340;-47
2023/08/11 13:57:32;;;;;;;;;;;21.20;59.20;;;;;;4949475;28;87221;-47
2023/08/11 13:59:58;;;;;;;;;;;21.30;59.40;;;;;;4955003;28;89106;-47
2023/08/11 14:02:25;;;;;;;;;;;21.30;59.20;;;;;;4944708;28;87295;-45
2023/08/11 14:04:51;;;;;;;;;;;21.20;59.20;;;;;;4945487;28;87487;-47
2023/08/11 14:07:17;;;;;;;;;;;21.20;59.20;;;;;;4947318;28;88090;-44
2023/08/11 14:09:43;;;;;;;;;;;21.30;59.20;;;;;;4953938;28;87255;-44